Tiempo atmosférico en la estación meteorológica de Marbella, Málaga (2 m.)



Fecha
DESCASC
Temp. máxima en grados centígrados (hora)
DESCASC
Temp. mínima en grados centígrados (hora)
DESCASC
Temp. media en grados centígrados
DESCASC
Racha de viento máxima en m/sg (hora)
DESCASC
Velocidad máxima media en intervalos de 10 minutos(hora)
DESCASC
Precipitaciones diarias en mm
DESCASC
Precipitaciones de 00:00 a 06:00 en mm
DESCASC
Precipitaciones de 06:00 a 12:00 en mm
DESCASC
Precipitaciones de 12:00 a 18:00 en mm
DESCASC
Precipitaciones de 18:00 a 24:00 en mm
DESCASC
22-11-2020 -- (--) -- (--) -- 12.22 (01:10) 10 (01:00) 0 0 0 0 0
21-11-2020 -- (--) -- (--) -- 12.22 (23:20) 10 (23:10) 0.4 0 0.4 0 0
20-11-2020 -- (--) -- (--) -- 6.39 (11:40) 5.56 (12:20) 0 0 0 0 0
19-11-2020 -- (--) -- (--) -- 10.28 (11:50) 8.61 (12:40) 0 0 0 0 0
18-11-2020 -- (--) -- (--) -- 7.22 (12:10) 6.39 (12:20) 0 0 0 0 0
17-11-2020 -- (--) -- (--) -- 7.5 (02:10) 5 (02:10) 0 0 0 0 0
16-11-2020 -- (--) -- (--) -- 7.78 (15:20) 5.83 (15:20) 0 0 0 0 0
15-11-2020 -- (--) -- (--) -- 3.89 (03:20) 3.06 (11:00) 0 0 0 0 0
14-11-2020 -- (--) -- (--) -- 4.17 (12:20) 3.61 (12:10) 0.4 0 0 0.4 0
13-11-2020 -- (--) -- (--) -- 5.28 (11:40) 4.72 (11:40) 0 0 0 0 0
12-11-2020 -- (--) -- (--) -- 10.83 (13:00) 8.06 (12:50) 0 0 0 0 0
11-11-2020 -- (--) -- (--) -- 9.44 (14:20) 8.06 (14:20) 0 0 0 0 0
10-11-2020 -- (--) -- (--) -- 7.78 (15:20) 6.39 (14:10) 0 0 0 0 0
09-11-2020 -- (--) -- (--) -- 8.33 (20:50) 4.44 (21:40) 0 0 0 0 0
08-11-2020 -- (--) -- (--) -- 3.89 (18:30) 3.33 (18:10) 0 0 0 0 0
07-11-2020 -- (--) -- (--) -- 11.67 (07:00) 9.72 (07:40) 0.2 0 0.2 0 0
06-11-2020 -- (--) -- (--) -- 15 (12:20) 11.39 (12:20) 3.2 0 0 0 3.2
05-11-2020 -- (--) -- (--) -- 17.78 (05:30) 13.06 (05:30) 2.2 2 0.2 0 0
04-11-2020 -- (--) -- (--) -- 15 (23:59) 12.22 (23:59) 1.8 0 0 0 1.8
03-11-2020 -- (--) -- (--) -- 4.17 (00:30) 2.78 (00:30) 0 0 0 0 0
02-11-2020 -- (--) -- (--) -- 5.28 (13:00) 4.72 (13:00) 0 0 0 0 0
01-11-2020 -- (--) -- (--) -- 3.33 (15:40) 2.78 (15:40) 0 0 0 0 0
31-10-2020 -- (--) -- (--) -- 3.33 (17:10) 2.5 (17:10) 0 0 0 0 0
30-10-2020 -- (--) -- (--) -- 8.33 (14:00) 5.83 (11:00) 0 0 0 0 0
29-10-2020 -- (--) -- (--) -- 8.61 (13:30) 7.78 (13:50) 0 0 0 0 0
28-10-2020 -- (--) -- (--) -- 10.28 (06:00) 5.83 (06:30) 0 0 0 0 0

Gráficas

Temp. máximas Temp. mínimas Temp. medias Precipitaciones Rachas de viento máximas Velocidades máximas media en intervalos de 10 minutos

Datos horarios

Fecha y hora oficial Temperatura (ºC) Velocidad del viento (km/h) Dirección del viento Racha (km/h) Dirección de racha Precipitación (mm) Presión (hPa) Tendencia (hPa) Humedad (%)
2020-11-26 23:00:00 13.4 14 Norte 24 Nordeste 0 -- -- 76
2020-11-26 22:00:00 13 14 Nordeste 22 Nordeste 0 -- -- 80
2020-11-26 21:00:00 12.9 13 Nordeste 20 Norte 0 -- -- 84
2020-11-26 20:00:00 12.3 10 Norte 21 Noroeste 0 -- -- 88
2020-11-26 19:00:00 11.4 12 Noroeste 39 Oeste 1.8 -- -- 87
2020-11-26 18:00:00 15.6 29 Este 36 Este 0 -- -- 74
2020-11-26 17:00:00 15.6 29 Este 33 Este 0 -- -- 73
2020-11-26 16:00:00 15.4 17 Nordeste 22 Este 0 -- -- 73
2020-11-26 15:00:00 15.4 17 Este 22 Este 0 -- -- 78
2020-11-26 14:00:00 15.3 15 Nordeste 22 Este 0 -- -- 73
2020-11-26 13:00:00 14.8 9 Este 12 Este 0 -- -- 79
2020-11-26 12:00:00 14.5 4 Este 10 Sudoeste 0 -- -- 79
2020-11-26 11:00:00 14 5 Este 10 Nordeste 0 -- -- 89
2020-11-26 10:00:00 13.8 6 Nordeste 8 Nordeste 0.6 -- -- 93
2020-11-26 09:00:00 13.2 2 Norte 11 Noroeste 1.4 -- -- 92
2020-11-26 08:00:00 13.2 6 Noroeste 18 Oeste 1.2 -- -- 91
2020-11-26 07:00:00 14.6 6 Oeste 12 Oeste 0.4 -- -- 87
2020-11-26 06:00:00 14.5 4 Noroeste 21 Norte 0 -- -- 86
2020-11-26 05:00:00 14.8 11 Norte 19 Norte 0 -- -- 89
2020-11-26 04:00:00 14.6 12 Nordeste 35 Oeste 0 -- -- 90
2020-11-26 03:00:00 15.4 23 Oeste 44 Sudoeste 13.4 -- -- 89
2020-11-26 02:00:00 17.3 30 Este 45 Este 4.2 -- -- 83
2020-11-26 01:00:00 17.6 28 Este 39 Este 0.4 -- -- 89
2020-11-26 00:00:00 17.6 23 Este 27 Este 0 -- -- 87
2020-11-25 23:00:00 17.6 24 Este 38 Este 0 -- -- 82
2020-11-25 22:00:00 15.8 18 Nordeste 23 Nordeste 1 -- -- 89
2020-11-25 21:00:00 15 13 Nordeste 20 Nordeste 0 -- -- 89
2020-11-25 20:00:00 14.3 3 Norte 18 Este 0 -- -- 91
2020-11-25 19:00:00 14.2 9 Noroeste 33 Oeste 1.4 -- -- 91
2020-11-25 18:00:00 14.7 30 Oeste 48 Oeste 8.6 -- -- 92
2020-11-25 17:00:00 17.7 23 Este 28 Este 0 -- -- 83
2020-11-25 16:00:00 17.6 5 Este 13 Sudeste 0.8 -- -- 84
2020-11-25 15:00:00 18.2 8 Sudeste 14 Sudeste 0.2 -- -- 82
2020-11-25 14:00:00 18.3 12 Sudeste 15 Sudeste 0 -- -- 82
2020-11-25 13:00:00 18.1 14 Sudeste 18 Este 0 -- -- 83
2020-11-25 12:00:00 17.8 14 Este 17 Este 0 -- -- 84
2020-11-25 11:00:00 17.7 10 Nordeste 13 Nordeste 0 -- -- 85
2020-11-25 10:00:00 16.6 9 Nordeste 14 Nordeste 0 -- -- 88
2020-11-25 09:00:00 16.3 8 Nordeste 13 Nordeste 0 -- -- 87
2020-11-25 08:00:00 16 9 Nordeste 12 Norte 0 -- -- 88
2020-11-25 07:00:00 15.9 8 Norte 11 Nordeste 0 -- -- 89
2020-11-25 06:00:00 16.2 5 Nordeste 10 Nordeste 0 -- -- 88
2020-11-25 05:00:00 16.2 3 Nordeste 7 Norte 0 -- -- 88
2020-11-25 04:00:00 16.1 6 Norte 8 Norte 0 -- -- 87
2020-11-25 03:00:00 16.4 0 Calma 4 Noroeste 0 -- -- 86
2020-11-25 02:00:00 16.2 3 Noroeste 7 Norte 0 -- -- 86
2020-11-25 01:00:00 16.1 0 Calma 5 Este 0 -- -- 85
2020-11-25 00:00:00 16.1 2 Nordeste 8 Norte 0 -- -- 85
2020-11-24 23:00:00 15.6 6 Norte 9 Norte 0 -- -- 84
2020-11-24 22:00:00 15.5 6 Noroeste 8 Noroeste 0 -- -- 84
2020-11-24 21:00:00 15.3 6 Noroeste 9 Noroeste 0 -- -- 84
2020-11-24 20:00:00 15.4 4 Noroeste 8 Norte 0 -- -- 83
2020-11-24 19:00:00 16 3 Noroeste 5 Sur 0 -- -- 80
2020-11-24 18:00:00 17.4 3 Sudeste 9 Sudeste 0 -- -- 76
2020-11-24 17:00:00 18.1 7 Sudeste 13 Este 0 -- -- 72
2020-11-24 16:00:00 17.6 11 Este 15 Este 0 -- -- 72
2020-11-24 15:00:00 17.4 13 Este 17 Este 0 -- -- 73
2020-11-24 14:00:00 17.9 14 Este 19 Este 0 -- -- 70
2020-11-24 13:00:00 17.3 16 Este 22 Este 0 -- -- 71
2020-11-24 12:00:00 17 19 Este 22 Este 0 -- -- 72
2020-11-24 11:00:00 17 19 Este 25 Este 0 -- -- 72
2020-11-24 10:00:00 17.7 16 Nordeste 23 Nordeste 0 -- -- 67
2020-11-24 09:00:00 15.8 11 Nordeste 15 Nordeste 0 -- -- 74
2020-11-24 08:00:00 14.9 8 Norte 15 Norte 0 -- -- 77
2020-11-24 07:00:00 14.9 11 Norte 17 Nordeste 0 -- -- 77
2020-11-24 06:00:00 14.6 12 Norte 17 Nordeste 0 -- -- 79
2020-11-24 05:00:00 14.7 12 Norte 19 Norte 0 -- -- 78
2020-11-24 04:00:00 14.8 8 Norte 14 Norte 0 -- -- 76
2020-11-24 03:00:00 14.9 8 Norte 15 Norte 0 -- -- 74
2020-11-24 02:00:00 14.8 10 Norte 15 Norte 0 -- -- 74
2020-11-24 01:00:00 14.9 10 Norte 14 Nordeste 0 -- -- 74
2020-11-24 00:00:00 15 6 Norte 13 Norte 0 -- -- 73
2020-11-23 23:00:00 15.1 8 Norte 13 Norte 0 -- -- 74
2020-11-23 22:00:00 15 6 Norte 11 Norte 0 -- -- 75
2020-11-23 21:00:00 15 7 Norte 12 Nordeste 0 -- -- 74
2020-11-23 20:00:00 15.4 8 Nordeste 13 Nordeste 0 -- -- 73
2020-11-23 19:00:00 16.5 13 Este 22 Este 0 -- -- 70
2020-11-23 18:00:00 16.7 18 Nordeste 24 Nordeste 0 -- -- 69
2020-11-23 17:00:00 17.5 17 Nordeste 28 Nordeste 0 -- -- 65
2020-11-23 16:00:00 17.4 21 Nordeste 30 Nordeste 0 -- -- 65
2020-11-23 15:00:00 17.3 25 Este 32 Este 0 -- -- 68
2020-11-23 14:00:00 17.2 26 Este 32 Nordeste 0 -- -- 70
2020-11-23 13:00:00 17.2 24 Este 32 Nordeste 0 -- -- 68
2020-11-23 12:00:00 16.9 22 Nordeste 32 Nordeste 0 -- -- 70
2020-11-23 11:00:00 17 21 Nordeste 30 Nordeste 0 -- -- 68
2020-11-23 10:00:00 16.4 16 Nordeste 23 Nordeste 0 -- -- 70
2020-11-23 09:00:00 15.7 14 Nordeste 24 Norte 0 -- -- 71
2020-11-23 08:00:00 15.4 13 Nordeste 21 Norte 0 -- -- 72
2020-11-23 07:00:00 15.7 12 Nordeste 18 Nordeste 0 -- -- 70
2020-11-23 06:00:00 15.6 10 Nordeste 18 Norte 0 -- -- 68
2020-11-23 05:00:00 15.5 12 Norte 21 Nordeste 0 -- -- 69
2020-11-23 04:00:00 15.5 11 Norte 17 Norte 0 -- -- 72
2020-11-23 03:00:00 15.1 12 Norte 16 Norte 0 -- -- 74
2020-11-23 02:00:00 15.3 10 Norte 19 Nordeste 0 -- -- 74
2020-11-23 01:00:00 15.5 10 Norte 14 Norte 0 -- -- 73
2020-11-23 00:00:00 15.5 9 Norte 19 Norte 0 -- -- 73
2020-11-22 23:00:00 15.8 14 Nordeste 22 Nordeste 0 -- -- 71
2020-11-22 22:00:00 15.3 9 Nordeste 15 Norte 0 -- -- 72
2020-11-22 21:00:00 15.1 10 Norte 15 Norte 0 -- -- 71
2020-11-22 20:00:00 15.6 9 Nordeste 15 Norte 0 -- -- 70
2020-11-22 19:00:00 15.7 9 Nordeste 17 Nordeste 0 -- -- 69
2020-11-22 18:00:00 17.1 14 Nordeste 21 Este 0 -- -- 64
2020-11-22 17:00:00 17.8 16 Este 21 Este 0 -- -- 62
2020-11-22 16:00:00 17.9 18 Este 24 Este 0 -- -- 60
2020-11-22 15:00:00 18.1 19 Este 28 Nordeste 0 -- -- 61
2020-11-22 14:00:00 17.3 24 Nordeste 32 Este 0 -- -- 66
2020-11-22 13:00:00 17.6 24 Nordeste 32 Este 0 -- -- 64
2020-11-22 12:00:00 17.4 27 Nordeste 32 Este 0 -- -- 66
2020-11-22 11:00:00 18.1 30 Este 34 Este 0 -- -- 59
2020-11-22 10:00:00 17.4 28 Este 34 Este 0 -- -- 64
2020-11-22 09:00:00 17.2 26 Este 33 Nordeste 0 -- -- 69
2020-11-22 08:00:00 17.1 27 Este 34 Este 0 -- -- 67
2020-11-22 07:00:00 17.1 27 Este 35 Este 0 -- -- 62
2020-11-22 06:00:00 17.2 29 Este 35 Este 0 -- -- 65
2020-11-22 05:00:00 17.3 28 Este 36 Este 0 -- -- 71
2020-11-22 04:00:00 17.4 30 Este 37 Este 0 -- -- 69
2020-11-22 03:00:00 17.5 30 Este 39 Este 0 -- -- 70
2020-11-22 02:00:00 17.7 31 Este 44 Este 0 -- -- 70
2020-11-22 01:00:00 17.8 36 Este 42 Este 0 -- -- 69
2020-11-22 00:00:00 17.8 33 Este 44 Este 0 -- -- 73
2020-11-21 23:00:00 18 34 Este 40 Este 0 -- -- 73
2020-11-21 22:00:00 18 28 Este 36 Este 0 -- -- 76
2020-11-21 21:00:00 18.1 27 Este 33 Este 0 -- -- 75
2020-11-21 20:00:00 17.3 13 Nordeste 31 Nordeste 0 -- -- 81
2020-11-21 19:00:00 17.9 22 Nordeste 33 Nordeste 0 -- -- 79
2020-11-21 18:00:00 18.1 28 Este 36 Nordeste 0 -- -- 79
2020-11-21 17:00:00 18.5 26 Nordeste 33 Este 0 -- -- 80
2020-11-21 16:00:00 18.8 27 Nordeste 32 Nordeste 0 -- -- 75
2020-11-21 15:00:00 18.7 24 Este 31 Nordeste 0 -- -- 75
2020-11-21 14:00:00 18.5 28 Este 41 Este 0 -- -- 78
2020-11-21 13:00:00 18.4 31 Este 38 Este 0 -- -- 80
2020-11-21 12:00:00 18.6 28 Este 35 Nordeste 0 -- -- 80
2020-11-21 11:00:00 18.5 27 Este 37 Este 0.2 -- -- 79
2020-11-21 10:00:00 18.4 24 Nordeste 33 Este 0 -- -- 82
2020-11-21 09:00:00 18.2 23 Nordeste 34 Este 0.2 -- -- 84
2020-11-21 08:00:00 17.8 14 Nordeste 22 Nordeste 0 -- -- 88
2020-11-21 07:00:00 17.8 12 Nordeste 22 Nordeste 0 -- -- 84
2020-11-21 06:00:00 17.9 11 Nordeste 18 Nordeste 0 -- -- 83
2020-11-21 05:00:00 17.6 10 Nordeste 15 Nordeste 0 -- -- 84
2020-11-21 04:00:00 17 10 Nordeste 15 Norte 0 -- -- 85
2020-11-21 03:00:00 16.8 9 Norte 15 Nordeste 0 -- -- 84
2020-11-21 02:00:00 16.8 11 Nordeste 15 Nordeste 0 -- -- 82
2020-11-21 01:00:00 16.9 8 Norte 17 Nordeste 0 -- -- 85
2020-11-21 00:00:00 17.2 9 Nordeste 18 Norte 0 -- -- 86
2020-11-20 23:00:00 17.3 11 Nordeste 17 Nordeste 0 -- -- 86
2020-11-20 22:00:00 17.4 10 Nordeste 14 Nordeste 0 -- -- 86
2020-11-20 21:00:00 17.5 10 Nordeste 18 Nordeste 0 -- -- 86
2020-11-20 20:00:00 17.7 10 Nordeste 15 Nordeste 0 -- -- 85
2020-11-20 19:00:00 17.9 9 Nordeste 17 Nordeste 0 -- -- 82
2020-11-20 18:00:00 18.8 14 Este 17 Este 0 -- -- 81
2020-11-20 17:00:00 19.8 12 Este 18 Este 0 -- -- 76
2020-11-20 16:00:00 19.7 15 Este 19 Este 0 -- -- 75
2020-11-20 15:00:00 19.6 16 Este 19 Este 0 -- -- 75
2020-11-20 14:00:00 19.8 16 Este 21 Este 0 -- -- 71
2020-11-20 13:00:00 19.8 18 Este 23 Este 0 -- -- 72
2020-11-20 12:00:00 19.8 19 Este 23 Este 0 -- -- 67
2020-11-20 11:00:00 19.9 13 Este 18 Nordeste 0 -- -- 69
2020-11-20 10:00:00 19.5 9 Nordeste 15 Nordeste 0 -- -- 66
2020-11-20 09:00:00 19 9 Norte 13 Norte 0 -- -- 68
2020-11-20 08:00:00 17.1 9 Norte 17 Norte 0 -- -- 74
2020-11-20 07:00:00 17.6 11 Norte 21 Norte 0 -- -- 72
2020-11-20 06:00:00 17.5 8 Norte 18 Norte 0 -- -- 74
2020-11-20 05:00:00 17.3 8 Norte 12 Norte 0 -- -- 75
2020-11-20 04:00:00 16.9 8 Norte 13 Norte 0 -- -- 75
2020-11-20 03:00:00 16.9 8 Norte 13 Norte 0 -- -- 75
2020-11-20 02:00:00 17.2 10 Nordeste 17 Nordeste 0 -- -- 75
2020-11-20 01:00:00 17.5 10 Nordeste 14 Nordeste 0 -- -- 74
2020-11-20 00:00:00 17.6 8 Nordeste 15 Nordeste 0 -- -- 76
2020-11-19 23:00:00 17.9 10 Nordeste 20 Norte 0 -- -- 75
2020-11-19 22:00:00 18.3 10 Nordeste 15 Nordeste 0 -- -- 76
2020-11-19 21:00:00 18.2 8 Nordeste 16 Nordeste 0 -- -- 79
2020-11-19 20:00:00 18.7 10 Nordeste 17 Nordeste 0 -- -- 76
2020-11-19 19:00:00 18.9 12 Nordeste 21 Nordeste 0 -- -- 75
2020-11-19 18:00:00 19.1 13 Nordeste 29 Nordeste 0 -- -- 75
2020-11-19 17:00:00 19.7 22 Nordeste 31 Nordeste 0 -- -- 69
2020-11-19 16:00:00 19.6 24 Este 31 Nordeste 0 -- -- 74
2020-11-19 15:00:00 19.4 27 Este 31 Este 0 -- -- 79
2020-11-19 14:00:00 19.4 27 Este 33 Este 0 -- -- 78
2020-11-19 13:00:00 19.4 30 Este 36 Este 0 -- -- 77
2020-11-19 12:00:00 19.4 30 Este 37 Este 0 -- -- 73
2020-11-19 11:00:00 20.1 20 Nordeste 32 Nordeste 0 -- -- 67
2020-11-19 10:00:00 20 15 Nordeste 23 Nordeste 0 -- -- 67
2020-11-19 09:00:00 18.6 14 Nordeste 21 Norte 0 -- -- 76
2020-11-19 08:00:00 17 12 Nordeste 18 Nordeste 0 -- -- 82
2020-11-19 07:00:00 16.8 9 Nordeste 14 Nordeste 0 -- -- 83
2020-11-19 06:00:00 16.4 8 Nordeste 13 Nordeste 0 -- -- 85
2020-11-19 05:00:00 16.6 6 Nordeste 12 Nordeste 0 -- -- 85
2020-11-19 04:00:00 16.9 8 Norte 12 Nordeste 0 -- -- 84
2020-11-19 03:00:00 17.5 5 Nordeste 10 Nordeste 0 -- -- 83
2020-11-19 02:00:00 17.6 8 Nordeste 11 Nordeste 0 -- -- 84
2020-11-19 01:00:00 16.7 6 Norte 10 Norte 0 -- -- 86
2020-11-19 00:00:00 16.7 8 Nordeste 10 Norte 0 -- -- 87
2020-11-18 23:00:00 16.7 8 Norte 9 Norte 0 -- -- 87
2020-11-18 22:00:00 17.2 7 Norte 9 Norte 0 -- -- 88
2020-11-18 21:00:00 17.6 6 Norte 10 Nordeste 0 -- -- 87
2020-11-18 20:00:00 17.9 5 Norte 10 Nordeste 0 -- -- 86
2020-11-18 19:00:00 18.6 8 Nordeste 17 Nordeste 0 -- -- 86
2020-11-18 18:00:00 18.9 15 Este 18 Nordeste 0 -- -- 86
2020-11-18 17:00:00 19.7 15 Este 17 Nordeste 0 -- -- 83
2020-11-18 16:00:00 19.8 13 Este 21 Nordeste 0 -- -- 83
2020-11-18 15:00:00 19.5 18 Este 21 Nordeste 0 -- -- 85
2020-11-18 14:00:00 19.2 18 Este 23 Nordeste 0 -- -- 85
2020-11-18 13:00:00 19.4 19 Este 26 Este 0 -- -- 83
2020-11-18 12:00:00 19.9 19 Este 23 Este 0 -- -- 80
2020-11-18 11:00:00 20.2 10 Nordeste 18 Norte 0 -- -- 70
2020-11-18 10:00:00 19.6 10 Nordeste 15 Nordeste 0 -- -- 74
2020-11-18 09:00:00 19.1 9 Nordeste 14 Norte 0 -- -- 76
2020-11-18 08:00:00 18.6 6 Norte 10 Norte 0 -- -- 80
2020-11-18 07:00:00 18.5 7 Nordeste 11 Nordeste 0 -- -- 81
2020-11-18 06:00:00 18.5 6 Nordeste 10 Nordeste 0 -- -- 82
2020-11-18 05:00:00 18.5 4 Nordeste 10 Nordeste 0 -- -- 83
2020-11-18 04:00:00 18.5 8 Este 11 Este 0 -- -- 83
2020-11-18 03:00:00 18.6 3 Este 8 Nordeste 0 -- -- 83
2020-11-18 02:00:00 18.5 2 Norte 8 Nordeste 0 -- -- 84
2020-11-18 01:00:00 18.4 6 Nordeste 9 Nordeste 0 -- -- 86
2020-11-18 00:00:00 18.4 0 Calma 5 Norte 0 -- -- 88
2020-11-17 23:00:00 18.1 4 Norte 6 Norte 0 -- -- 89
2020-11-17 22:00:00 17.3 0 Calma 4 Nordeste 0 -- -- 90
2020-11-17 21:00:00 17.8 0 Calma 7 Nordeste 0 -- -- 89
2020-11-17 20:00:00 18.4 6 Nordeste 8 Nordeste 0 -- -- 88
2020-11-17 19:00:00 19 5 Este 8 Este 0 -- -- 90
2020-11-17 18:00:00 19.6 5 Este 6 Este 0 -- -- 86
2020-11-17 17:00:00 21.6 3 Este 5 Este 0 -- -- 77
2020-11-17 16:00:00 21.4 4 Sudeste 8 Este 0 -- -- 79
2020-11-17 15:00:00 20.7 7 Este 11 Este 0 -- -- 82
2020-11-17 14:00:00 20.9 8 Este 13 Este 0 -- -- 81
2020-11-17 13:00:00 20.8 11 Este 14 Este 0 -- -- 80
2020-11-17 12:00:00 21 10 Este 21 Este 0 -- -- 78
2020-11-17 11:00:00 21.3 8 Nordeste 11 Nordeste 0 -- -- 75
2020-11-17 10:00:00 21.3 5 Nordeste 8 Este 0 -- -- 71
2020-11-17 09:00:00 20.3 0 Calma 4 Nordeste 0 -- -- 75
2020-11-17 08:00:00 17.1 0 Calma 4 Nordeste 0 -- -- 80
2020-11-17 07:00:00 17.9 3 Nordeste 10 Nordeste 0 -- -- 76
2020-11-17 06:00:00 18 5 Nordeste 15 Nordeste 0 -- -- 72
2020-11-17 05:00:00 19 7 Nordeste 15 Nordeste 0 -- -- 66
2020-11-17 04:00:00 20.1 9 Nordeste 20 Norte 0 -- -- 61
2020-11-17 03:00:00 21 15 Norte 27 Norte 0 -- -- 56
2020-11-17 02:00:00 21.6 15 Norte 24 Norte 0 -- -- 54
2020-11-17 01:00:00 19.2 5 Noroeste 10 Noroeste 0 -- -- 70
2020-11-17 00:00:00 17.8 5 Oeste 8 Sudoeste 0 -- -- 80
2020-11-16 23:00:00 18.6 0 Calma 10 Sur 0 -- -- 84
2020-11-16 22:00:00 19.6 6 Sur 11 Sur 0 -- -- 82
2020-11-16 21:00:00 19.3 2 Este 5 Este 0 -- -- 73
2020-11-16 20:00:00 19.9 5 Noroeste 15 Oeste 0 -- -- 69
2020-11-16 19:00:00 21 7 Oeste 20 Oeste 0 -- -- 65
2020-11-16 18:00:00 21.5 12 Oeste 20 Oeste 0 -- -- 67
2020-11-16 17:00:00 22.5 17 Oeste 27 Oeste 0 -- -- 62
2020-11-16 16:00:00 24.4 14 Oeste 28 Oeste 0 -- -- 48
2020-11-16 15:00:00 22.9 17 Oeste 22 Oeste 0 -- -- 59
2020-11-16 14:00:00 21.8 11 Oeste 15 Oeste 0 -- -- 64
2020-11-16 13:00:00 20.7 12 Oeste 14 Sudoeste 0 -- -- 69
2020-11-16 12:00:00 19.5 14 Oeste 16 Oeste 0 -- -- 85
2020-11-16 11:00:00 19.4 8 Sudoeste 9 Oeste 0 -- -- 86
2020-11-16 10:00:00 19.1 0 Calma 8 Oeste 0 -- -- 83
2020-11-16 09:00:00 17.7 6 Noroeste 9 Oeste 0 -- -- 85
2020-11-16 08:00:00 15.6 0 Calma 8 Noroeste 0 -- -- 87
2020-11-16 07:00:00 16.2 7 Oeste 8 Oeste 0 -- -- 87
2020-11-16 06:00:00 15.7 3 Nordeste 4 Nordeste 0 -- -- 90
2020-11-16 05:00:00 15.8 0 Calma 7 Noroeste 0 -- -- 88
2020-11-16 04:00:00 16 3 Noroeste 8 Noroeste 0 -- -- 88
2020-11-16 03:00:00 16.1 2 Noroeste 4 Noroeste 0 -- -- 90
2020-11-16 02:00:00 16.3 3 Nordeste 4 Nordeste 0 -- -- 89
2020-11-16 01:00:00 17 2 Nordeste 6 Noroeste 0 -- -- 88
2020-11-16 00:00:00 17.5 3 Noroeste 8 Oeste 0 -- -- 86
2020-11-15 23:00:00 17.7 0 Calma 13 Oeste 0 -- -- 82
2020-11-15 22:00:00 18.2 8 Oeste 12 Noroeste 0 -- -- 81
2020-11-15 21:00:00 18 10 Oeste 12 Oeste 0 -- -- 80
2020-11-15 20:00:00 18.4 7 Noroeste 12 Oeste 0 -- -- 81
2020-11-15 19:00:00 18.9 6 Oeste 12 Oeste 0 -- -- 83
2020-11-15 18:00:00 19.7 10 Oeste 11 Oeste 0 -- -- 86
2020-11-15 17:00:00 20.4 7 Sudoeste 8 Oeste 0 -- -- 85
2020-11-15 16:00:00 20.1 6 Oeste 8 Oeste 0 -- -- 85
2020-11-15 15:00:00 19.9 7 Oeste 9 Sudoeste 0 -- -- 85
2020-11-15 14:00:00 19.6 9 Sudoeste 10 Sudoeste 0 -- -- 86
2020-11-15 13:00:00 19.5 5 Sudoeste 8 Oeste 0 -- -- 83
2020-11-15 12:00:00 19.4 6 Sudoeste 11 Sudoeste 0 -- -- 86
2020-11-15 11:00:00 19 11 Sudoeste 12 Sudoeste 0 -- -- 85
2020-11-15 10:00:00 19 6 Oeste 7 Oeste 0 -- -- 86
2020-11-15 09:00:00 18.2 3 Oeste 6 Oeste 0 -- -- 87
2020-11-15 08:00:00 16.2 0 Calma 3 Sudoeste 0 -- -- 92
2020-11-15 07:00:00 16.7 3 Nordeste 10 Noroeste 0 -- -- 90
2020-11-15 06:00:00 16.6 8 Noroeste 14 Noroeste 0 -- -- 92
2020-11-15 05:00:00 16.2 3 Noroeste 9 Noroeste 0 -- -- 93
2020-11-15 04:00:00 16.8 6 Noroeste 14 Noroeste 0 -- -- 92
2020-11-15 03:00:00 16.8 8 Noroeste 12 Noroeste 0 -- -- 93
2020-11-15 02:00:00 17.1 6 Noroeste 12 Noroeste 0 -- -- 93
2020-11-15 01:00:00 16.9 6 Noroeste 10 Noroeste 0 -- -- 93
2020-11-15 00:00:00 16.5 0 Calma 7 Oeste 0 -- -- 93
2020-11-14 23:00:00 16.9 4 Noroeste 8 Oeste 0 -- -- 92
2020-11-14 22:00:00 17.1 4 Noroeste 8 Noroeste 0 -- -- 92
2020-11-14 21:00:00 17 0 Calma 6 Norte 0 -- -- 92
2020-11-14 20:00:00 17.5 5 Noroeste 7 Noroeste 0 -- -- 92
2020-11-14 19:00:00 18.2 2 Norte 4 Noroeste 0 -- -- 91
2020-11-14 18:00:00 18.9 0 Calma 9 Nordeste 0 -- -- 90
2020-11-14 17:00:00 19 7 Nordeste 8 Nordeste 0 -- -- 90
2020-11-14 16:00:00 19.2 4 Este 8 Este 0 -- -- 89
2020-11-14 15:00:00 18.8 6 Este 9 Nordeste 0.4 -- -- 90
2020-11-14 14:00:00 18.8 7 Nordeste 8 Nordeste 0 -- -- 89
2020-11-14 13:00:00 18.8 6 Nordeste 15 Este 0 -- -- 89
2020-11-14 12:00:00 18.7 13 Este 15 Este 0 -- -- 88
2020-11-14 11:00:00 18.7 12 Nordeste 14 Nordeste 0 -- -- 88
2020-11-14 10:00:00 18.6 9 Este 12 Este 0 -- -- 88
2020-11-14 09:00:00 18.4 5 Nordeste 9 Nordeste 0 -- -- 86
2020-11-14 08:00:00 17.7 6 Nordeste 11 Nordeste 0 -- -- 88
2020-11-14 07:00:00 17.3 4 Nordeste 6 Nordeste 0 -- -- 88
2020-11-14 06:00:00 17.6 4 Nordeste 8 Nordeste 0 -- -- 88
2020-11-14 05:00:00 17.5 5 Norte 8 Norte 0 -- -- 88
2020-11-14 04:00:00 17.9 0 Calma 8 Nordeste 0 -- -- 88
2020-11-14 03:00:00 18.1 4 Nordeste 9 Norte 0 -- -- 88
2020-11-14 02:00:00 17.6 3 Nordeste 5 Nordeste 0 -- -- 88
2020-11-14 01:00:00 17.8 0 Calma 5 Sudoeste 0 -- -- 89
2020-11-14 00:00:00 18.2 4 Nordeste 10 Nordeste 0 -- -- 88
2020-11-13 23:00:00 18.2 6 Nordeste 9 Nordeste 0 -- -- 88
2020-11-13 22:00:00 18.1 5 Norte 8 Noroeste 0 -- -- 88
2020-11-13 21:00:00 18.1 4 Noroeste 6 Noroeste 0 -- -- 88
2020-11-13 20:00:00 18.6 0 Calma 2 Noroeste 0 -- -- 87
2020-11-13 19:00:00 18.6 0 Calma 5 Este 0 -- -- 86
2020-11-13 18:00:00 18.8 6 Este 9 Este 0 -- -- 85
2020-11-13 17:00:00 19.1 7 Este 11 Este 0 -- -- 83
2020-11-13 16:00:00 19.3 8 Este 14 Este 0 -- -- 82
2020-11-13 15:00:00 19.2 13 Este 16 Este 0 -- -- 81
2020-11-13 14:00:00 19.4 13 Este 17 Este 0 -- -- 81
2020-11-13 13:00:00 20 14 Este 18 Este 0 -- -- 77
2020-11-13 12:00:00 19.9 17 Este 19 Este 0 -- -- 78
2020-11-13 11:00:00 20.1 14 Este 16 Este 0 -- -- 77
2020-11-13 10:00:00 19 10 Nordeste 14 Nordeste 0 -- -- 82
2020-11-13 09:00:00 18.2 7 Nordeste 13 Nordeste 0 -- -- 86
2020-11-13 08:00:00 17.9 9 Nordeste 13 Nordeste 0 -- -- 87
2020-11-13 07:00:00 17.8 6 Nordeste 14 Nordeste 0 -- -- 87
2020-11-13 06:00:00 17.9 9 Nordeste 14 Nordeste 0 -- -- 86
2020-11-13 05:00:00 17.8 9 Nordeste 18 Nordeste 0 -- -- 86
2020-11-13 04:00:00 17.7 10 Nordeste 15 Nordeste 0 -- -- 86
2020-11-13 03:00:00 17.7 9 Nordeste 18 Nordeste 0 -- -- 85
2020-11-13 02:00:00 17.8 10 Nordeste 18 Nordeste 0 -- -- 85
2020-11-13 01:00:00 18.1 12 Nordeste 18 Norte 0 -- -- 85
2020-11-13 00:00:00 18.3 12 Nordeste 17 Nordeste 0 -- -- 84
2020-11-12 23:00:00 18.2 8 Nordeste 12 Nordeste 0 -- -- 83
2020-11-12 22:00:00 18.1 8 Norte 12 Norte 0 -- -- 81
2020-11-12 21:00:00 18.4 7 Norte 12 Nordeste 0 -- -- 79
2020-11-12 20:00:00 18.3 8 Nordeste 13 Norte 0 -- -- 79
2020-11-12 19:00:00 18.5 8 Nordeste 17 Nordeste 0 -- -- 78
2020-11-12 18:00:00 18.7 13 Nordeste 21 Nordeste 0 -- -- 76
2020-11-12 17:00:00 19 17 Nordeste 23 Nordeste 0 -- -- 74
2020-11-12 16:00:00 19 16 Nordeste 27 Nordeste 0 -- -- 73
2020-11-12 15:00:00 19.1 22 Este 34 Este 0 -- -- 72
2020-11-12 14:00:00 19.1 23 Este 37 Nordeste 0 -- -- 70
2020-11-12 13:00:00 19.2 27 Nordeste 39 Nordeste 0 -- -- 70
2020-11-12 12:00:00 19.1 23 Nordeste 36 Nordeste 0 -- -- 72
2020-11-12 11:00:00 18.5 18 Nordeste 28 Este 0 -- -- 74
2020-11-12 10:00:00 18.3 15 Nordeste 23 Nordeste 0 -- -- 74
2020-11-12 09:00:00 18.1 14 Nordeste 27 Nordeste 0 -- -- 76
2020-11-12 08:00:00 17.5 15 Nordeste 24 Nordeste 0 -- -- 80
2020-11-12 07:00:00 17.4 13 Nordeste 23 Nordeste 0 -- -- 81
2020-11-12 06:00:00 17.4 13 Nordeste 22 Nordeste 0 -- -- 83
2020-11-12 05:00:00 17.3 14 Nordeste 23 Nordeste 0 -- -- 84
2020-11-12 04:00:00 17.2 14 Nordeste 23 Nordeste 0 -- -- 84
2020-11-12 03:00:00 17.7 15 Nordeste 25 Nordeste 0 -- -- 84
2020-11-12 02:00:00 17.8 13 Nordeste 22 Nordeste 0 -- -- 82
2020-11-12 01:00:00 17.9 13 Nordeste 22 Nordeste 0 -- -- 83
2020-11-12 00:00:00 17.7 14 Nordeste 20 Nordeste 0 -- -- 84
2020-11-11 23:00:00 17.9 9 Nordeste 18 Nordeste 0 -- -- 83
2020-11-11 22:00:00 18.1 11 Nordeste 26 Nordeste 0 -- -- 84
2020-11-11 21:00:00 18.2 14 Nordeste 22 Nordeste 0 -- -- 85
2020-11-11 20:00:00 18 12 Nordeste 23 Nordeste 0 -- -- 84
2020-11-11 19:00:00 18.3 13 Nordeste 22 Nordeste 0 -- -- 83
2020-11-11 18:00:00 18.6 15 Nordeste 24 Este 0 -- -- 81
2020-11-11 17:00:00 18.7 17 Este 25 Este 0 -- -- 81
2020-11-11 16:00:00 18.8 24 Este 30 Este 0 -- -- 80
2020-11-11 15:00:00 19 27 Este 34 Este 0 -- -- 77
2020-11-11 14:00:00 19 23 Nordeste 33 Nordeste 0 -- -- 76
2020-11-11 13:00:00 19.1 17 Nordeste 30 Nordeste 0 -- -- 75
2020-11-11 12:00:00 18.9 19 Nordeste 26 Nordeste 0 -- -- 76
2020-11-11 11:00:00 18.4 19 Nordeste 28 Nordeste 0 -- -- 79
2020-11-11 10:00:00 18.2 19 Nordeste 29 Nordeste 0 -- -- 79
2020-11-11 09:00:00 18.1 17 Nordeste 24 Nordeste 0 -- -- 81
2020-11-11 08:00:00 17.4 14 Nordeste 24 Nordeste 0 -- -- 84
2020-11-11 07:00:00 17.4 13 Nordeste 19 Nordeste 0 -- -- 85
2020-11-11 06:00:00 17.2 13 Nordeste 22 Nordeste 0 -- -- 86
2020-11-11 05:00:00 17.1 16 Nordeste 23 Nordeste 0 -- -- 87
2020-11-11 04:00:00 17.3 11 Nordeste 21 Nordeste 0 -- -- 87
2020-11-11 03:00:00 17.3 14 Nordeste 23 Nordeste 0 -- -- 87
2020-11-11 02:00:00 17.5 15 Nordeste 24 Nordeste 0 -- -- 86
2020-11-11 01:00:00 17.6 15 Nordeste 27 Nordeste 0 -- -- 85
2020-11-11 00:00:00 17.7 18 Nordeste 28 Nordeste 0 -- -- 79
2020-11-10 23:00:00 17.7 14 Nordeste 21 Nordeste 0 -- -- 74
2020-11-10 22:00:00 17.7 15 Nordeste 23 Nordeste 0 -- -- 70
2020-11-10 21:00:00 18.2 15 Nordeste 26 Nordeste 0 -- -- 68
2020-11-10 20:00:00 18.3 14 Nordeste 20 Nordeste 0 -- -- 68
2020-11-10 19:00:00 18.6 13 Nordeste 18 Nordeste 0 -- -- 70
2020-11-10 18:00:00 19.9 14 Nordeste 24 Este 0 -- -- 67
2020-11-10 17:00:00 19.5 23 Este 26 Este 0 -- -- 78
2020-11-10 16:00:00 20.3 18 Nordeste 28 Este 0 -- -- 66
2020-11-10 15:00:00 19.5 21 Este 27 Este 0 -- -- 79
2020-11-10 14:00:00 19.3 22 Este 27 Este 0 -- -- 80
2020-11-10 13:00:00 19.1 22 Este 26 Este 0 -- -- 76
2020-11-10 12:00:00 19.3 18 Este 22 Este 0 -- -- 78
2020-11-10 11:00:00 19.4 15 Este 17 Nordeste 0 -- -- 71
2020-11-10 10:00:00 21.5 12 Nordeste 18 Nordeste 0 -- -- 51
2020-11-10 09:00:00 19.5 10 Norte 17 Norte 0 -- -- 56
2020-11-10 08:00:00 16.8 4 Noroeste 18 Noroeste 0 -- -- 59
2020-11-10 07:00:00 17.2 9 Oeste 14 Oeste 0 -- -- 75
2020-11-10 06:00:00 17.1 9 Noroeste 18 Noroeste 0 -- -- 61
2020-11-10 05:00:00 16.7 9 Oeste 12 Noroeste 0 -- -- 81
2020-11-10 04:00:00 17.4 7 Sudoeste 14 Sudoeste 0 -- -- 84
2020-11-10 03:00:00 17.4 4 Noroeste 19 Noroeste 0 -- -- 75
2020-11-10 02:00:00 17.7 12 Oeste 22 Noroeste 0 -- -- 64
2020-11-10 01:00:00 18 15 Noroeste 27 Norte 0 -- -- 62
2020-11-10 00:00:00 18 7 Sudoeste 14 Sudoeste 0 -- -- 76
2020-11-09 23:00:00 17.8 5 Noroeste 21 Norte 0 -- -- 82
2020-11-09 22:00:00 19.3 14 Norte 26 Norte 0 -- -- 63
2020-11-09 21:00:00 19.3 16 Norte 30 Noroeste 0 -- -- 64
2020-11-09 20:00:00 18 6 Noroeste 10 Noroeste 0 -- -- 80
2020-11-09 19:00:00 18.1 7 Oeste 12 Oeste 0 -- -- 83
2020-11-09 18:00:00 18.5 10 Oeste 13 Oeste 0 -- -- 88
2020-11-09 17:00:00 18.7 11 Oeste 14 Oeste 0 -- -- 86
2020-11-09 16:00:00 18.8 11 Oeste 15 Sudoeste 0 -- -- 83
2020-11-09 15:00:00 18.6 13 Sudoeste 15 Sudoeste 0 -- -- 85
2020-11-09 14:00:00 18.8 12 Sudoeste 14 Sudoeste 0 -- -- 82
2020-11-09 13:00:00 18.7 9 Sudoeste 12 Sudoeste 0 -- -- 81
2020-11-09 12:00:00 18.3 7 Sudoeste 11 Sudoeste 0 -- -- 79
2020-11-09 11:00:00 19 9 Sudoeste 10 Sudoeste 0 -- -- 78
2020-11-09 10:00:00 18.9 4 Sudoeste 6 Sudoeste 0 -- -- 75
2020-11-09 09:00:00 18.8 0 Calma 8 Noroeste 0 -- -- 75
2020-11-09 08:00:00 15.2 4 Noroeste 7 Noroeste 0 -- -- 87
2020-11-09 07:00:00 14.8 0 Calma 3 Noroeste 0 -- -- 86
2020-11-09 06:00:00 14.8 2 Nordeste 6 Nordeste 0 -- -- 86
2020-11-09 05:00:00 14.8 5 Nordeste 6 Nordeste 0 -- -- 84
2020-11-09 04:00:00 14.9 0 Calma 4 Nordeste 0 -- -- 82
2020-11-09 03:00:00 15.2 0 Calma 4 Norte 0 -- -- 82
2020-11-09 02:00:00 15.6 3 Noroeste 6 Noroeste 0 -- -- 81
2020-11-09 01:00:00 16 5 Noroeste 7 Noroeste 0 -- -- 88
2020-11-09 00:00:00 16.3 5 Noroeste 7 Noroeste 0 -- -- 87
2020-11-08 23:00:00 16.4 5 Noroeste 8 Noroeste 0 -- -- 84
2020-11-08 22:00:00 16.4 5 Noroeste 8 Noroeste 0 -- -- 83
2020-11-08 21:00:00 16.6 5 Noroeste 7 Noroeste 0 -- -- 85
2020-11-08 20:00:00 16.8 5 Norte 11 Este 0 -- -- 85
2020-11-08 19:00:00 18 11 Este 14 Este 0 -- -- 87
2020-11-08 18:00:00 18.7 11 Este 13 Este 0 -- -- 82
2020-11-08 17:00:00 19.4 6 Nordeste 7 Este 0 -- -- 78
2020-11-08 16:00:00 19.7 6 Este 8 Este 0 -- -- 77
2020-11-08 15:00:00 20 6 Este 7 Este 0 -- -- 74
2020-11-08 14:00:00 20.6 4 Sudeste 4 Sudeste 0 -- -- 68
2020-11-08 13:00:00 20.8 3 Sur 4 Sur 0 -- -- 67
2020-11-08 12:00:00 20.1 0 Calma 4 Sudoeste 0 -- -- 69
2020-11-08 11:00:00 18.8 4 Sudoeste 6 Sudoeste 0 -- -- 73
2020-11-08 10:00:00 18.7 4 Sudoeste 5 Sudoeste 0 -- -- 71
2020-11-08 09:00:00 17.9 0 Calma 4 Nordeste 0 -- -- 76
2020-11-08 08:00:00 14.9 2 Noroeste 6 Noroeste 0 -- -- 84
2020-11-08 07:00:00 14.7 2 Noroeste 5 Norte 0 -- -- 85
2020-11-08 06:00:00 15 3 Nordeste 5 Este 0 -- -- 89
2020-11-08 05:00:00 15.1 2 Este 4 Este 0 -- -- 88
2020-11-08 04:00:00 16 0 Calma 8 Norte 0 -- -- 85
2020-11-08 03:00:00 16 6 Nordeste 9 Nordeste 0 -- -- 84
2020-11-08 02:00:00 16.5 6 Nordeste 13 Nordeste 0 -- -- 82
2020-11-08 01:00:00 16.6 8 Nordeste 12 Nordeste 0 -- -- 75
2020-11-08 00:00:00 16.2 2 Nordeste 7 Este 0 -- -- 79
2020-11-07 23:00:00 16.5 0 Calma 12 Este 0 -- -- 73
2020-11-07 22:00:00 17.7 10 Nordeste 14 Oeste 0 -- -- 74
2020-11-07 21:00:00 18.4 10 Noroeste 15 Oeste 0 -- -- 64
2020-11-07 20:00:00 18.6 8 Noroeste 16 Noroeste 0 -- -- 67
2020-11-07 19:00:00 19.1 9 Noroeste 19 Oeste 0 -- -- 69
2020-11-07 18:00:00 20.1 17 Oeste 26 Sudoeste 0 -- -- 70
2020-11-07 17:00:00 20.2 15 Oeste 24 Oeste 0 -- -- 73
2020-11-07 16:00:00 20.1 8 Oeste 21 Sudoeste 0 -- -- 79
2020-11-07 15:00:00 19.1 20 Sudoeste 30 Sudoeste 0 -- -- 84
2020-11-07 14:00:00 18.9 21 Sudoeste 27 Sudoeste 0 -- -- 83
2020-11-07 13:00:00 18.9 15 Sudoeste 26 Sudoeste 0 -- -- 84
2020-11-07 12:00:00 18.8 22 Sudoeste 27 Sur 0 -- -- 80
2020-11-07 11:00:00 18.7 23 Sudoeste 27 Sudoeste 0 -- -- 79
2020-11-07 10:00:00 18.2 23 Sudoeste 33 Sudoeste 0 -- -- 83
2020-11-07 09:00:00 18.1 23 Sudoeste 36 Sudoeste 0 -- -- 86
2020-11-07 08:00:00 18.1 30 Sudoeste 41 Sudoeste 0 -- -- 88
2020-11-07 07:00:00 18.1 32 Sudoeste 42 Sudoeste 0.2 -- -- 85
2020-11-07 06:00:00 18.2 21 Sudoeste 29 Sudoeste 0 -- -- 84
2020-11-07 05:00:00 17.2 16 Nordeste 24 Nordeste 0 -- -- 89
2020-11-07 04:00:00 17.3 15 Nordeste 27 Nordeste 0 -- -- 86
2020-11-07 03:00:00 17.2 15 Nordeste 24 Nordeste 0 -- -- 85
2020-11-07 02:00:00 16.9 7 Este 13 Este 0 -- -- 87
2020-11-07 01:00:00 16.9 4 Este 8 Norte 0 -- -- 89
2020-11-07 00:00:00 16.8 6 Norte 13 Noroeste 0.4 -- -- 88
2020-11-06 23:00:00 17.1 5 Noroeste 33 Sudoeste 2.8 -- -- 83
2020-11-06 22:00:00 19.6 13 Oeste 22 Sudoeste 0 -- -- 70
2020-11-06 21:00:00 19.5 4 Noroeste 25 Oeste 0 -- -- 72
2020-11-06 20:00:00 19.9 9 Noroeste 13 Oeste 0 -- -- 71
2020-11-06 19:00:00 19.9 4 Norte 9 Norte 0 -- -- 71
2020-11-06 18:00:00 20.4 3 Noroeste 8 Nordeste 0 -- -- 70
2020-11-06 17:00:00 21.3 0 Calma 11 Nordeste 0 -- -- 67
2020-11-06 16:00:00 21.7 8 Nordeste 35 Nordeste 0 -- -- 59
2020-11-06 15:00:00 22.7 33 Nordeste 48 Nordeste 0 -- -- 53
2020-11-06 14:00:00 22.8 36 Nordeste 51 Nordeste 0 -- -- 51
2020-11-06 13:00:00 22.5 35 Nordeste 54 Este 0 -- -- 54
2020-11-06 12:00:00 22.1 37 Nordeste 49 Nordeste 0 -- -- 56
2020-11-06 11:00:00 22.3 31 Nordeste 47 Nordeste 0 -- -- 54
2020-11-06 10:00:00 22.2 30 Nordeste 49 Nordeste 0 -- -- 55
2020-11-06 09:00:00 21.4 28 Nordeste 40 Nordeste 0 -- -- 57
2020-11-06 08:00:00 20.5 23 Nordeste 34 Nordeste 0 -- -- 63
2020-11-06 07:00:00 20.4 26 Nordeste 38 Nordeste 0 -- -- 62
2020-11-06 06:00:00 20.4 24 Nordeste 38 Nordeste 0 -- -- 61
2020-11-06 05:00:00 18.5 9 Nordeste 15 Nordeste 0 -- -- 70
2020-11-06 04:00:00 18.1 4 Oeste 19 Nordeste 0 -- -- 75
2020-11-06 03:00:00 19.2 10 Nordeste 19 Nordeste 0 -- -- 59
2020-11-06 02:00:00 18.5 6 Norte 12 Norte 0 -- -- 69
2020-11-06 01:00:00 19.4 11 Noroeste 23 Sudoeste 0 -- -- 63
2020-11-06 00:00:00 19.5 19 Sudoeste 24 Sudoeste 0 -- -- 72
2020-11-05 23:00:00 19.6 3 Sudeste 15 Norte 0 -- -- 66
2020-11-05 22:00:00 20.3 4 Este 32 Nordeste 0 -- -- 62
2020-11-05 21:00:00 20.4 24 Nordeste 37 Nordeste 0 -- -- 61
2020-11-05 20:00:00 20.3 22 Nordeste 31 Nordeste 0 -- -- 60
2020-11-05 19:00:00 19.9 18 Nordeste 28 Nordeste 0 -- -- 62
2020-11-05 18:00:00 19.9 20 Nordeste 40 Nordeste 0 -- -- 70
2020-11-05 17:00:00 20.2 27 Nordeste 42 Nordeste 0 -- -- 75
2020-11-05 16:00:00 20.7 30 Nordeste 44 Nordeste 0 -- -- 76
2020-11-05 15:00:00 20.6 24 Nordeste 33 Este 0 -- -- 78
2020-11-05 14:00:00 20 19 Nordeste 25 Este 0 -- -- 82
2020-11-05 13:00:00 19.4 21 Este 29 Este 0 -- -- 86
2020-11-05 12:00:00 18.8 28 Este 56 Este 0 -- -- 87
2020-11-05 11:00:00 18.6 42 Este 54 Este 0.2 -- -- 88
2020-11-05 10:00:00 18.5 33 Este 47 Este 0 -- -- 91
2020-11-05 09:00:00 18.4 28 Este 45 Este 0 -- -- 92
2020-11-05 08:00:00 18.3 31 Este 44 Este 0 -- -- 92
2020-11-05 07:00:00 18.3 36 Este 51 Este 0 -- -- 92
2020-11-05 06:00:00 18.4 31 Este 64 Este 1.6 -- -- 87
2020-11-05 05:00:00 18.3 42 Este 58 Este 0.4 -- -- 91
2020-11-05 04:00:00 18.2 41 Este 52 Este 0 -- -- 89
2020-11-05 03:00:00 18.1 40 Este 53 Este 0 -- -- 89
2020-11-05 02:00:00 17.9 27 Este 37 Este 0 -- -- 86
2020-11-05 01:00:00 18 31 Este 47 Este 0 -- -- 88
2020-11-05 00:00:00 17.9 44 Este 54 Sudeste 0.4 -- -- 86
2020-11-04 23:00:00 18.2 41 Este 48 Este 1.4 -- -- 92
2020-11-04 22:00:00 18.3 21 Nordeste 29 Nordeste 0 -- -- 86
2020-11-04 21:00:00 17.9 20 Nordeste 28 Nordeste 0 -- -- 83
2020-11-04 20:00:00 18 13 Nordeste 22 Nordeste 0 -- -- 80
2020-11-04 19:00:00 18 14 Nordeste 19 Nordeste 0 -- -- 81
2020-11-04 18:00:00 18.1 15 Este 21 Este 0 -- -- 82
2020-11-04 17:00:00 18.4 15 Nordeste 21 Este 0 -- -- 78
2020-11-04 16:00:00 18.9 15 Este 18 Este 0 -- -- 80
2020-11-04 15:00:00 18.7 13 Este 24 Este 0 -- -- 80
2020-11-04 14:00:00 18.8 18 Nordeste 24 Este 0 -- -- 75
2020-11-04 13:00:00 19 19 Este 27 Este 0 -- -- 74
2020-11-04 12:00:00 18.8 18 Nordeste 24 Este 0 -- -- 76
2020-11-04 11:00:00 19.3 12 Nordeste 22 Nordeste 0 -- -- 73
2020-11-04 10:00:00 18.4 10 Nordeste 15 Nordeste 0 -- -- 74
2020-11-04 09:00:00 17.1 2 Nordeste 6 Oeste 0 -- -- 80
2020-11-04 08:00:00 16.7 0 Calma 6 Nordeste 0 -- -- 81
2020-11-04 07:00:00 16.9 5 Norte 9 Norte 0 -- -- 79
2020-11-04 06:00:00 17.1 7 Norte 11 Norte 0 -- -- 78
2020-11-04 05:00:00 17.2 8 Norte 16 Nordeste 0 -- -- 77
2020-11-04 04:00:00 17 6 Norte 18 Nordeste 0 -- -- 77
2020-11-04 03:00:00 16.8 11 Nordeste 23 Nordeste 0 -- -- 84
2020-11-04 02:00:00 16.8 15 Nordeste 27 Nordeste 0 -- -- 86
2020-11-04 01:00:00 16.7 9 Nordeste 14 Nordeste 0 -- -- 85
2020-11-04 00:00:00 16.7 9 Nordeste 12 Nordeste 0 -- -- 88
2020-11-03 23:00:00 15.8 5 Norte 7 Norte 0 -- -- 89
2020-11-03 22:00:00 15.9 3 Norte 5 Norte 0 -- -- 87
2020-11-03 21:00:00 15.9 4 Norte 5 Norte 0 -- -- 87
2020-11-03 20:00:00 16.2 0 Calma 5 Norte 0 -- -- 86
2020-11-03 19:00:00 16.6 4 Noroeste 7 Oeste 0 -- -- 85
2020-11-03 18:00:00 17.5 5 Sudoeste 9 Sudoeste 0 -- -- 82
2020-11-03 17:00:00 17.6 7 Sudoeste 9 Oeste 0 -- -- 82
2020-11-03 16:00:00 17.6 5 Sudoeste 10 Sudoeste 0 -- -- 82
2020-11-03 15:00:00 17.8 7 Sudoeste 9 Sudoeste 0 -- -- 81
2020-11-03 14:00:00 17.4 7 Sudoeste 11 Sudoeste 0 -- -- 81
2020-11-03 13:00:00 17.5 6 Sudoeste 12 Sudoeste 0 -- -- 80
2020-11-03 12:00:00 17.1 3 Sur 9 Sudoeste 0 -- -- 80
2020-11-03 11:00:00 16.4 6 Oeste 11 Noroeste 0 -- -- 83
2020-11-03 10:00:00 15.5 7 Noroeste 14 Noroeste 0 -- -- 90
2020-11-03 09:00:00 14.6 9 Noroeste 12 Noroeste 0 -- -- 95
2020-11-03 08:00:00 14.1 4 Noroeste 10 Oeste 0 -- -- 96
2020-11-03 07:00:00 13.1 5 Noroeste 9 Oeste 0 -- -- 95
2020-11-03 06:00:00 12.8 6 Oeste 10 Noroeste 0 -- -- 94
2020-11-03 05:00:00 13.6 6 Noroeste 12 Noroeste 0 -- -- 95
2020-11-03 04:00:00 14.7 8 Noroeste 12 Noroeste 0 -- -- 93
2020-11-03 03:00:00 15.4 5 Noroeste 11 Noroeste 0 -- -- 92
2020-11-03 02:00:00 15.7 6 Noroeste 11 Noroeste 0 -- -- 90
2020-11-03 01:00:00 16.4 7 Noroeste 15 Oeste 0 -- -- 89
2020-11-03 00:00:00 16.9 7 Oeste 10 Oeste 0 -- -- 89
2020-11-02 23:00:00 17 5 Noroeste 8 Oeste 0 -- -- 88
2020-11-02 22:00:00 16.6 6 Noroeste 8 Noroeste 0 -- -- 90
2020-11-02 21:00:00 16.4 4 Noroeste 5 Noroeste 0 -- -- 88
2020-11-02 20:00:00 16.8 3 Norte 4 Norte 0 -- -- 87
2020-11-02 19:00:00 17.7 0 Calma 4 Sudeste 0 -- -- 84
2020-11-02 18:00:00 19.5 3 Sudeste 7 Este 0 -- -- 79
2020-11-02 17:00:00 19.3 6 Este 9 Este 0 -- -- 80
2020-11-02 16:00:00 19.2 5 Este 11 Este 0 -- -- 81
2020-11-02 15:00:00 18.5 9 Este 18 Este 0 -- -- 83
2020-11-02 14:00:00 18.5 15 Este 19 Este 0 -- -- 83
2020-11-02 13:00:00 18.4 17 Este 19 Este 0 -- -- 82
2020-11-02 12:00:00 18.3 13 Este 14 Este 0 -- -- 82
2020-11-02 11:00:00 18.8 5 Este 10 Noroeste 0 -- -- 77
2020-11-02 10:00:00 16.5 6 Noroeste 10 Norte 0 -- -- 92
2020-11-02 09:00:00 15 4 Nordeste 6 Norte 0 -- -- 95
2020-11-02 08:00:00 14.7 6 Norte 9 Nordeste 0 -- -- 95
2020-11-02 07:00:00 14.3 4 Nordeste 5 Nordeste 0 -- -- 93
2020-11-02 06:00:00 14.1 0 Calma 4 Nordeste 0 -- -- 92
2020-11-02 05:00:00 14.4 2 Nordeste 4 Nordeste 0 -- -- 92
2020-11-02 04:00:00 14.8 0 Calma 4 Nordeste 0 -- -- 90
2020-11-02 03:00:00 14.9 0 Calma 3 Noroeste 0 -- -- 91
2020-11-02 02:00:00 15.1 0 Calma 3 Nordeste 0 -- -- 91
2020-11-02 01:00:00 15.4 0 Calma 4 Nordeste 0 -- -- 91
2020-11-02 00:00:00 15.9 4 Noroeste 7 Noroeste 0 -- -- 90
2020-11-01 23:00:00 15.8 3 Noroeste 4 Noroeste 0 -- -- 90
2020-11-01 22:00:00 16.2 0 Calma 8 Noroeste 0 -- -- 89
2020-11-01 21:00:00 16.8 5 Noroeste 8 Noroeste 0 -- -- 87
2020-11-01 20:00:00 17.1 5 Noroeste 10 Noroeste 0 -- -- 87
2020-11-01 19:00:00 17.5 5 Oeste 9 Oeste 0 -- -- 86
2020-11-01 18:00:00 18 8 Oeste 11 Oeste 0 -- -- 87
2020-11-01 17:00:00 18.5 10 Oeste 11 Oeste 0 -- -- 85
2020-11-01 16:00:00 18.4 10 Oeste 12 Oeste 0 -- -- 86
2020-11-01 15:00:00 18.3 7 Sudoeste 9 Sudoeste 0 -- -- 85
2020-11-01 14:00:00 18.1 6 Sudoeste 8 Sudoeste 0 -- -- 86
2020-11-01 13:00:00 19.6 3 Sur 6 Sudoeste 0 -- -- 78
2020-11-01 12:00:00 18.7 4 Sudoeste 8 Sur 0 -- -- 82
2020-11-01 11:00:00 18.8 4 Este 6 Este 0 -- -- 76
2020-11-01 10:00:00 18.7 3 Este 5 Sudeste 0 -- -- 70
2020-11-01 09:00:00 18.3 3 Oeste 4 Oeste 0 -- -- 72
2020-11-01 08:00:00 14.4 0 Calma 4 Este 0 -- -- 85
2020-11-01 07:00:00 14.2 0 Calma 4 Noroeste 0 -- -- 87
2020-11-01 06:00:00 14.4 0 Calma 4 Oeste 0 -- -- 87
2020-11-01 05:00:00 14.8 0 Calma 2 Sudoeste 0 -- -- 87
2020-11-01 04:00:00 14.8 0 Calma 4 Este 0 -- -- 88
2020-11-01 03:00:00 15.2 3 Nordeste 4 Nordeste 0 -- -- 88
2020-11-01 02:00:00 15.5 0 Calma 3 Nordeste 0 -- -- 87
2020-11-01 01:00:00 16 3 Nordeste 10 Noroeste 0 -- -- 85
2020-11-01 00:00:00 16.6 6 Noroeste 8 Noroeste 0 -- -- 84
2020-10-31 23:00:00 16.8 5 Noroeste 8 Noroeste 0 -- -- 83
2020-10-31 22:00:00 16.9 6 Noroeste 8 Noroeste 0 -- -- 83
2020-10-31 21:00:00 16.9 3 Oeste 4 Oeste 0 -- -- 84
2020-10-31 20:00:00 17.4 0 Calma 4 Oeste 0 -- -- 83
2020-10-31 19:00:00 18.3 5 Oeste 6 Oeste 0 -- -- 83
2020-10-31 18:00:00 19.8 4 Sudoeste 12 Oeste 0 -- -- 78
2020-10-31 17:00:00 20.1 6 Sudoeste 8 Oeste 0 -- -- 77
2020-10-31 16:00:00 20.1 6 Sudoeste 8 Sudoeste 0 -- -- 76
2020-10-31 15:00:00 20 4 Sudoeste 8 Sudoeste 0 -- -- 74
2020-10-31 14:00:00 19.9 5 Sudoeste 9 Sudoeste 0 -- -- 74
2020-10-31 13:00:00 20.1 4 Sudoeste 6 Sudoeste 0 -- -- 73
2020-10-31 12:00:00 21.2 3 Sudeste 6 Este 0 -- -- 69
2020-10-31 11:00:00 20.8 6 Sudeste 7 Sudeste 0 -- -- 68
2020-10-31 10:00:00 20.6 0 Calma 5 Norte 0 -- -- 66
2020-10-31 09:00:00 17.7 4 Noroeste 10 Noroeste 0 -- -- 67
2020-10-31 08:00:00 16.1 0 Calma 6 Noroeste 0 -- -- 71
2020-10-31 07:00:00 16.5 6 Noroeste 10 Oeste 0 -- -- 66
2020-10-31 06:00:00 15.9 3 Oeste 6 Oeste 0 -- -- 72
2020-10-31 05:00:00 15.7 0 Calma 4 Nordeste 0 -- -- 72
2020-10-31 04:00:00 15.7 0 Calma 7 Oeste 0 -- -- 73
2020-10-31 03:00:00 16.2 5 Nordeste 7 Este 0 -- -- 69
2020-10-31 02:00:00 16.9 8 Nordeste 10 Nordeste 0 -- -- 66
2020-10-31 01:00:00 16.8 7 Nordeste 10 Nordeste 0 -- -- 68
2020-10-31 00:00:00 17.1 4 Este 8 Nordeste 0 -- -- 70
2020-10-30 23:00:00 17.3 0 Calma 9 Nordeste 0 -- -- 69
2020-10-30 22:00:00 17.9 8 Nordeste 10 Nordeste 0 -- -- 68
2020-10-30 21:00:00 18.1 11 Nordeste 13 Este 0 -- -- 65
2020-10-30 20:00:00 18.5 7 Nordeste 10 Nordeste 0 -- -- 61
2020-10-30 19:00:00 19.2 7 Nordeste 12 Este 0 -- -- 58
2020-10-30 18:00:00 19.6 9 Este 17 Este 0 -- -- 65
2020-10-30 17:00:00 19.9 14 Este 20 Este 0 -- -- 64
2020-10-30 16:00:00 20.6 13 Este 23 Este 0 -- -- 57
2020-10-30 15:00:00 21 17 Nordeste 27 Nordeste 0 -- -- 54
2020-10-30 14:00:00 21.1 20 Este 30 Este 0 -- -- 54
2020-10-30 13:00:00 20.6 15 Este 22 Nordeste 0 -- -- 63
2020-10-30 12:00:00 20.6 14 Este 25 Este 0 -- -- 56
2020-10-30 11:00:00 19.5 21 Este 24 Este 0 -- -- 66
2020-10-30 10:00:00 20.9 14 Nordeste 22 Nordeste 0 -- -- 53
2020-10-30 09:00:00 20.4 11 Nordeste 16 Nordeste 0 -- -- 48
2020-10-30 08:00:00 17.4 6 Nordeste 18 Norte 0 -- -- 52
2020-10-30 07:00:00 17.8 14 Nordeste 22 Nordeste 0 -- -- 52
2020-10-30 06:00:00 18 15 Nordeste 23 Nordeste 0 -- -- 52
2020-10-30 05:00:00 17.8 12 Nordeste 22 Nordeste 0 -- -- 57
2020-10-30 04:00:00 17.8 15 Nordeste 23 Nordeste 0 -- -- 57
2020-10-30 03:00:00 18 14 Nordeste 22 Nordeste 0 -- -- 53
2020-10-30 02:00:00 18 12 Nordeste 19 Nordeste 0 -- -- 54
2020-10-30 01:00:00 17.9 10 Nordeste 17 Nordeste 0 -- -- 55
2020-10-30 00:00:00 17.6 10 Nordeste 17 Nordeste 0 -- -- 52
2020-10-29 23:00:00 17.8 9 Nordeste 16 Nordeste 0 -- -- 47
2020-10-29 22:00:00 17.7 6 Nordeste 14 Nordeste 0 -- -- 54
2020-10-29 21:00:00 18.2 9 Nordeste 12 Nordeste 0 -- -- 52
2020-10-29 20:00:00 18.7 11 Nordeste 17 Nordeste 0 -- -- 51
2020-10-29 19:00:00 18.9 10 Nordeste 18 Nordeste 0 -- -- 51
2020-10-29 18:00:00 20.9 17 Nordeste 28 Nordeste 0 -- -- 43
2020-10-29 17:00:00 20.8 22 Nordeste 29 Nordeste 0 -- -- 43
2020-10-29 16:00:00 18.9 23 Este 28 Este 0 -- -- 73
2020-10-29 15:00:00 18.9 26 Este 31 Este 0 -- -- 64
2020-10-29 14:00:00 18.8 28 Este 31 Este 0 -- -- 64
2020-10-29 13:00:00 18.5 27 Este 31 Este 0 -- -- 69
2020-10-29 12:00:00 18.6 24 Este 27 Este 0 -- -- 69
2020-10-29 11:00:00 18.3 19 Este 21 Este 0 -- -- 68
2020-10-29 10:00:00 17.9 18 Este 19 Este 0 -- -- 67
2020-10-29 09:00:00 18.8 9 Nordeste 11 Nordeste 0 -- -- 56
2020-10-29 08:00:00 14.8 3 Nordeste 11 Nordeste 0 -- -- 74
2020-10-29 07:00:00 13.7 6 Nordeste 8 Nordeste 0 -- -- 78
2020-10-29 06:00:00 15.3 7 Nordeste 10 Este 0 -- -- 72
2020-10-29 05:00:00 14.6 4 Nordeste 6 Nordeste 0 -- -- 74
2020-10-29 04:00:00 14.5 0 Calma 9 Nordeste 0 -- -- 79
2020-10-29 03:00:00 15.3 8 Nordeste 10 Nordeste 0 -- -- 79
2020-10-29 02:00:00 14.3 3 Nordeste 4 Nordeste 0 -- -- 69
2020-10-29 01:00:00 14.3 4 Nordeste 5 Nordeste 0 -- -- 63
2020-10-29 00:00:00 14.7 2 Noroeste 4 Norte 0 -- -- 65
2020-10-28 23:00:00 14.8 0 Calma 5 Norte 0 -- -- 66
2020-10-28 22:00:00 15.2 0 Calma 3 Norte 0 -- -- 66
2020-10-28 21:00:00 15.7 2 Nordeste 5 Nordeste 0 -- -- 64
2020-10-28 20:00:00 16 3 Este 6 Oeste 0 -- -- 66
2020-10-28 19:00:00 17.1 4 Oeste 7 Sudoeste 0 -- -- 69
2020-10-28 18:00:00 18.4 4 Oeste 6 Oeste 0 -- -- 67
2020-10-28 17:00:00 20 4 Sur -- -- 0 -- -- 64
2020-10-28 16:00:00 19.4 5 Sudoeste 6 Sudoeste 0 -- -- 69
2020-10-28 15:00:00 18.9 5 Sudoeste 7 Sur 0 -- -- 71
2020-10-28 14:00:00 18.3 5 Sudoeste 8 Sudoeste 0 -- -- 69
2020-10-28 13:00:00 17.8 6 Sudoeste 7 Sudoeste 0 -- -- 65
2020-10-28 12:00:00 17.9 5 Sudoeste 12 Oeste 0 -- -- 63
2020-10-28 11:00:00 17.3 10 Oeste 13 Oeste 0 -- -- 62
2020-10-28 10:00:00 16.8 8 Oeste 10 Sudoeste 0 -- -- 65
2020-10-28 09:00:00 16.7 6 Oeste 13 Sur 0 -- -- 68
2020-10-28 08:00:00 15.8 5 Sudoeste 19 Oeste 0 -- -- 70
2020-10-28 07:00:00 15.8 17 Oeste 34 Norte 0 -- -- 63
2020-10-28 06:00:00 17.4 19 Norte 37 Norte 0 -- -- 44
2020-10-28 05:00:00 16.8 13 Norte 24 Norte 0 -- -- 47
2020-10-28 04:00:00 14.3 4 Noroeste 6 Norte 0 -- -- 65
2020-10-28 03:00:00 14.2 0 Calma 6 Noroeste 0 -- -- 58
2020-10-28 02:00:00 14.9 5 Noroeste 11 Oeste 0 -- -- 59
2020-10-28 01:00:00 15.6 7 Noroeste 17 Oeste 0 -- -- 66
2020-10-28 00:00:00 17.4 9 Noroeste 13 Noroeste 0 -- -- 41